Ekwok, AK

3:04 AM AKST on March 06, 2015 (GMT -0900)
Egegik | Change Station
CLOSE
Current Station
Airport
Location: Egegik,
Elevation: 92 ft
Nearby Weather Stations
Active Advisory: Winter Weather Advisory

Elev 92 ft 58.19 °N, 157.39 °W | Updated 8 minutes ago

Overcast
Overcast
28 °F
Feels Like 22 °F
N
6
Wind Variable Wind from SSW

Today
High -- | Low -- °F
--% Chance of Precip.
Yesterday
High -- | Low -- °F
Precip. -- in
8:13 AM 7:11 PM
Full, 100% visible
Pressure 30.23 in
Visibility 10.0 miles
Clouds Overcast 500 ft
Windchill 22 °F
Dew Point 27 °F
Humidity 93%
Rainfall 0.00 in
Snow Depth Not available.
UV 0 out of 12
Pollen Not available.
Air Quality Not available.
Flu Activity Not available.
METAR PAII 061156Z AUTO 21005KT 10SM OVC005 M02/M03 A3023 RMK AO1 10000 21040 52007

More Conditions Fewer Conditions

Pressure 30.23 in
Visibility 10.0 miles
Clouds Overcast 500 ft
Windchill 22 °F
Dew Point 27 °F
Humidity 93%
Rainfall 0.00 in
Snow Depth Not available.
UV 0 out of 12
Pollen Not available.
Air Quality Not available.
Flu Activity Not available.
METAR PAII 061156Z AUTO 21005KT 10SM OVC005 M02/M03 A3023 RMK AO1 10000 21040 52007

More Conditions Fewer Conditions

10-Day Weather Forecast

Almanac

Astronomy

Mar. 06, 2015 Rise Set
Actual Time
Civil Twilight
Nautical Twilight
Astronomical Twilight
Moon
Length of Visible Light
Length of Day
Tomorrow will be .
, % of the Moon is Illuminated

Today's Extremes

State Highs State Lows

Community

WunderPhotos

Upload Photos

1,803,237 photos uploaded!

WunderBlogs® & News

Nearby

Air Quality

  Air Quality AQ Index Pollutant
Not available.

Snow Depth

Station Depth Elevation

Earthquake Activity

City Distance Mag. Time & Date
Minimum magnitude displayed is 2.5.

Coastal Water Temperatures

Place Temperature

Nearby Weather Stations

Winter Weather Advisory
Statement as of 3:58 PM AKST on March 05, 2015

... Winter Weather Advisory in effect from noon Friday to 6 am
akst Saturday for snow and blowing snow north of Dillingham...

The National Weather Service in Anchorage has issued a Winter
Weather Advisory for snow and blowing snow... which is in effect
from noon Friday to 6 am akst Saturday.

* Location... north of Dillingham

* snow... 6 to 10 inches.

* Visibility... less than one half mile at times... particularly in
the vicinity of Koliganek and New Stuyahok.

* Wind... S to SW 15 to 30 mph with gusts to 40 mph.

* Timing... snowfall and increasing southerly winds will begin
developing from the west on Friday afternoon... and spread
throughout northern Bristol Bay area by Friday evening. These
conditions are expected to continue until early Saturday
morning.

Precautionary/preparedness actions...

A Winter Weather Advisory for snow and blowing snow means that
visibilities will be limited due to a combination of falling and
blowing snow. Use caution when traveling... especially in open
areas.